sensor_id;sensor_type;location;lat;lon;timestamp;temperature;humidity
57026;DHT22;43961;52.940;6.834;2022-09-09T00:01:08;13.70;99.90
57026;DHT22;43961;52.940;6.834;2022-09-09T00:03:46;13.60;99.90
57026;DHT22;43961;52.940;6.834;2022-09-09T00:06:23;13.60;99.90
57026;DHT22;43961;52.940;6.834;2022-09-09T00:08:59;13.60;99.90
57026;DHT22;43961;52.940;6.834;2022-09-09T00:16:54;13.40;99.90
57026;DHT22;43961;52.940;6.834;2022-09-09T00:19:29;13.40;99.90
57026;DHT22;43961;52.940;6.834;2022-09-09T00:22:29;13.40;99.90
57026;DHT22;43961;52.940;6.834;2022-09-09T00:25:16;13.30;99.90
57026;DHT22;43961;52.940;6.834;2022-09-09T00:27:47;13.30;99.90
57026;DHT22;43961;52.940;6.834;2022-09-09T00:30:27;13.30;99.90
57026;DHT22;43961;52.940;6.834;2022-09-09T00:33:03;13.20;99.90
57026;DHT22;43961;52.940;6.834;2022-09-09T00:35:42;13.20;99.90
57026;DHT22;43961;52.940;6.834;2022-09-09T00:38:13;13.20;99.90
57026;DHT22;43961;52.940;6.834;2022-09-09T00:41:10;13.10;99.90
57026;DHT22;43961;52.940;6.834;2022-09-09T00:43:39;13.10;99.90
57026;DHT22;43961;52.940;6.834;2022-09-09T00:46:38;13.10;99.90
57026;DHT22;43961;52.940;6.834;2022-09-09T00:52:07;13.10;99.90
57026;DHT22;43961;52.940;6.834;2022-09-09T00:57:34;13.10;99.90
57026;DHT22;43961;52.940;6.834;2022-09-09T01:00:22;13.10;99.90
57026;DHT22;43961;52.940;6.834;2022-09-09T01:08:00;13.10;99.90
57026;DHT22;43961;52.940;6.834;2022-09-09T01:11:03;13.10;99.90
57026;DHT22;43961;52.940;6.834;2022-09-09T01:13:33;13.10;99.90
57026;DHT22;43961;52.940;6.834;2022-09-09T01:16:01;13.10;99.90
57026;DHT22;43961;52.940;6.834;2022-09-09T01:18:35;13.10;99.90
57026;DHT22;43961;52.940;6.834;2022-09-09T01:27:09;13.10;99.90
57026;DHT22;43961;52.940;6.834;2022-09-09T01:29:36;13.10;99.90
57026;DHT22;43961;52.940;6.834;2022-09-09T01:32:40;13.10;99.90
57026;DHT22;43961;52.940;6.834;2022-09-09T01:35:32;13.10;99.90
57026;DHT22;43961;52.940;6.834;2022-09-09T01:38:00;13.20;99.90
57026;DHT22;43961;52.940;6.834;2022-09-09T01:40:26;13.20;99.90
57026;DHT22;43961;52.940;6.834;2022-09-09T01:42:52;13.30;99.90
57026;DHT22;43961;52.940;6.834;2022-09-09T01:45:18;13.30;99.90
57026;DHT22;43961;52.940;6.834;2022-09-09T01:47:45;13.40;99.90
57026;DHT22;43961;52.940;6.834;2022-09-09T01:50:13;13.40;99.90
57026;DHT22;43961;52.940;6.834;2022-09-09T01:52:42;13.50;99.90
57026;DHT22;43961;52.940;6.834;2022-09-09T01:55:09;13.50;99.90
57026;DHT22;43961;52.940;6.834;2022-09-09T01:57:48;13.60;99.90
57026;DHT22;43961;52.940;6.834;2022-09-09T02:00:15;13.60;99.90
57026;DHT22;43961;52.940;6.834;2022-09-09T02:03:19;13.60;99.90
57026;DHT22;43961;52.940;6.834;2022-09-09T02:08:24;13.70;99.90
57026;DHT22;43961;52.940;6.834;2022-09-09T02:11:16;13.70;99.90
57026;DHT22;43961;52.940;6.834;2022-09-09T02:13:44;13.80;99.90
57026;DHT22;43961;52.940;6.834;2022-09-09T02:19:01;13.80;99.90
57026;DHT22;43961;52.940;6.834;2022-09-09T02:21:31;13.90;99.90
57026;DHT22;43961;52.940;6.834;2022-09-09T02:24:03;13.90;99.90
57026;DHT22;43961;52.940;6.834;2022-09-09T02:26:31;14.00;99.90
57026;DHT22;43961;52.940;6.834;2022-09-09T02:29:02;14.00;99.90
57026;DHT22;43961;52.940;6.834;2022-09-09T02:31:28;14.00;99.90
57026;DHT22;43961;52.940;6.834;2022-09-09T02:33:58;14.00;99.90
57026;DHT22;43961;52.940;6.834;2022-09-09T02:36:28;14.10;99.90
57026;DHT22;43961;52.940;6.834;2022-09-09T02:38:56;14.10;99.90
57026;DHT22;43961;52.940;6.834;2022-09-09T02:41:29;14.10;99.90
57026;DHT22;43961;52.940;6.834;2022-09-09T02:43:55;14.10;99.90
57026;DHT22;43961;52.940;6.834;2022-09-09T02:46:46;14.20;99.90
57026;DHT22;43961;52.940;6.834;2022-09-09T02:49:38;14.20;99.90
57026;DHT22;43961;52.940;6.834;2022-09-09T02:52:08;14.20;99.90
57026;DHT22;43961;52.940;6.834;2022-09-09T02:54:34;14.30;99.90
57026;DHT22;43961;52.940;6.834;2022-09-09T02:57:11;14.30;99.90
57026;DHT22;43961;52.940;6.834;2022-09-09T02:59:40;14.30;99.90
57026;DHT22;43961;52.940;6.834;2022-09-09T03:02:05;14.30;99.90
57026;DHT22;43961;52.940;6.834;2022-09-09T03:04:31;14.30;99.90
57026;DHT22;43961;52.940;6.834;2022-09-09T03:06:58;14.30;99.90
57026;DHT22;43961;52.940;6.834;2022-09-09T03:09:24;14.30;99.90
57026;DHT22;43961;52.940;6.834;2022-09-09T03:11:51;14.30;99.90
57026;DHT22;43961;52.940;6.834;2022-09-09T03:14:17;14.30;99.90
57026;DHT22;43961;52.940;6.834;2022-09-09T03:16:46;14.30;99.90
57026;DHT22;43961;52.940;6.834;2022-09-09T03:19:12;14.40;99.90
57026;DHT22;43961;52.940;6.834;2022-09-09T03:21:38;14.40;99.90
57026;DHT22;43961;52.940;6.834;2022-09-09T03:24:04;14.40;99.90
57026;DHT22;43961;52.940;6.834;2022-09-09T03:26:30;14.40;99.90
57026;DHT22;43961;52.940;6.834;2022-09-09T03:28:57;14.40;99.90
57026;DHT22;43961;52.940;6.834;2022-09-09T03:31:22;14.40;99.90
57026;DHT22;43961;52.940;6.834;2022-09-09T03:33:49;14.40;99.90
57026;DHT22;43961;52.940;6.834;2022-09-09T03:36:14;14.40;99.90
57026;DHT22;43961;52.940;6.834;2022-09-09T03:38:41;14.40;99.90
57026;DHT22;43961;52.940;6.834;2022-09-09T03:41:06;14.40;99.90
57026;DHT22;43961;52.940;6.834;2022-09-09T03:43:33;14.40;99.90
57026;DHT22;43961;52.940;6.834;2022-09-09T03:45:59;14.40;99.90
57026;DHT22;43961;52.940;6.834;2022-09-09T03:48:26;14.50;99.90
57026;DHT22;43961;52.940;6.834;2022-09-09T03:50:54;14.40;99.90
57026;DHT22;43961;52.940;6.834;2022-09-09T03:53:24;14.50;99.90
57026;DHT22;43961;52.940;6.834;2022-09-09T03:55:52;14.50;99.90
57026;DHT22;43961;52.940;6.834;2022-09-09T03:58:21;14.50;99.90
57026;DHT22;43961;52.940;6.834;2022-09-09T04:00:57;14.50;99.90
57026;DHT22;43961;52.940;6.834;2022-09-09T04:03:24;14.50;99.90
57026;DHT22;43961;52.940;6.834;2022-09-09T04:05:53;14.40;99.90
57026;DHT22;43961;52.940;6.834;2022-09-09T04:08:20;14.40;99.90
57026;DHT22;43961;52.940;6.834;2022-09-09T04:10:47;14.40;99.90
57026;DHT22;43961;52.940;6.834;2022-09-09T04:13:14;14.40;99.90
57026;DHT22;43961;52.940;6.834;2022-09-09T04:15:42;14.40;99.90
57026;DHT22;43961;52.940;6.834;2022-09-09T04:18:08;14.40;99.90
57026;DHT22;43961;52.940;6.834;2022-09-09T04:20:34;14.40;99.90
57026;DHT22;43961;52.940;6.834;2022-09-09T04:23:01;14.40;99.90
57026;DHT22;43961;52.940;6.834;2022-09-09T04:25:27;14.30;99.90
57026;DHT22;43961;52.940;6.834;2022-09-09T04:27:57;14.30;99.90
57026;DHT22;43961;52.940;6.834;2022-09-09T04:30:23;14.30;99.90
57026;DHT22;43961;52.940;6.834;2022-09-09T04:32:49;14.30;99.90
57026;DHT22;43961;52.940;6.834;2022-09-09T04:35:15;14.30;99.90
57026;DHT22;43961;52.940;6.834;2022-09-09T04:37:41;14.30;99.90
57026;DHT22;43961;52.940;6.834;2022-09-09T04:40:07;14.30;99.90
57026;DHT22;43961;52.940;6.834;2022-09-09T04:42:35;14.30;99.90
57026;DHT22;43961;52.940;6.834;2022-09-09T04:45:01;14.30;99.90
57026;DHT22;43961;52.940;6.834;2022-09-09T04:47:27;14.30;99.90
57026;DHT22;43961;52.940;6.834;2022-09-09T04:49:52;14.30;99.90
57026;DHT22;43961;52.940;6.834;2022-09-09T04:52:20;14.30;99.90
57026;DHT22;43961;52.940;6.834;2022-09-09T04:54:46;14.30;99.90
57026;DHT22;43961;52.940;6.834;2022-09-09T04:57:12;14.20;99.90
57026;DHT22;43961;52.940;6.834;2022-09-09T04:59:37;14.30;99.90
57026;DHT22;43961;52.940;6.834;2022-09-09T05:02:04;14.30;99.90
57026;DHT22;43961;52.940;6.834;2022-09-09T05:04:30;14.30;99.90
57026;DHT22;43961;52.940;6.834;2022-09-09T05:06:56;14.30;99.90
57026;DHT22;43961;52.940;6.834;2022-09-09T05:09:21;14.30;99.90
57026;DHT22;43961;52.940;6.834;2022-09-09T05:11:47;14.30;99.90
57026;DHT22;43961;52.940;6.834;2022-09-09T05:14:13;14.30;99.90
57026;DHT22;43961;52.940;6.834;2022-09-09T05:16:40;14.30;99.90
57026;DHT22;43961;52.940;6.834;2022-09-09T05:19:05;14.30;99.90
57026;DHT22;43961;52.940;6.834;2022-09-09T05:21:33;14.30;99.90
57026;DHT22;43961;52.940;6.834;2022-09-09T05:23:59;14.30;99.90
57026;DHT22;43961;52.940;6.834;2022-09-09T05:26:26;14.30;99.90
57026;DHT22;43961;52.940;6.834;2022-09-09T05:28:52;14.30;99.90
57026;DHT22;43961;52.940;6.834;2022-09-09T05:31:18;14.30;99.90
57026;DHT22;43961;52.940;6.834;2022-09-09T05:33:46;14.30;99.90
57026;DHT22;43961;52.940;6.834;2022-09-09T05:36:15;14.30;99.90
57026;DHT22;43961;52.940;6.834;2022-09-09T05:38:43;14.30;99.90
57026;DHT22;43961;52.940;6.834;2022-09-09T05:41:09;14.30;99.90
57026;DHT22;43961;52.940;6.834;2022-09-09T05:43:37;14.30;99.90
57026;DHT22;43961;52.940;6.834;2022-09-09T05:46:10;14.30;99.90
57026;DHT22;43961;52.940;6.834;2022-09-09T05:48:38;14.30;99.90
57026;DHT22;43961;52.940;6.834;2022-09-09T05:51:05;14.40;99.90
57026;DHT22;43961;52.940;6.834;2022-09-09T05:53:34;14.40;99.90
57026;DHT22;43961;52.940;6.834;2022-09-09T05:56:04;14.30;99.90
57026;DHT22;43961;52.940;6.834;2022-09-09T05:58:31;14.40;99.90
57026;DHT22;43961;52.940;6.834;2022-09-09T06:01:09;14.40;99.90
57026;DHT22;43961;52.940;6.834;2022-09-09T06:03:38;14.40;99.90
57026;DHT22;43961;52.940;6.834;2022-09-09T06:06:07;14.50;99.90
57026;DHT22;43961;52.940;6.834;2022-09-09T06:08:34;14.50;99.90
57026;DHT22;43961;52.940;6.834;2022-09-09T06:11:08;14.50;99.90
57026;DHT22;43961;52.940;6.834;2022-09-09T06:13:35;14.50;99.90
57026;DHT22;43961;52.940;6.834;2022-09-09T06:16:06;14.60;99.90
57026;DHT22;43961;52.940;6.834;2022-09-09T06:18:33;14.60;99.90
57026;DHT22;43961;52.940;6.834;2022-09-09T06:21:00;14.50;99.90
57026;DHT22;43961;52.940;6.834;2022-09-09T06:23:27;14.60;99.90
57026;DHT22;43961;52.940;6.834;2022-09-09T06:26:14;14.60;99.90
57026;DHT22;43961;52.940;6.834;2022-09-09T06:28:40;14.70;99.90
57026;DHT22;43961;52.940;6.834;2022-09-09T06:31:12;14.70;99.90
57026;DHT22;43961;52.940;6.834;2022-09-09T06:33:40;14.80;99.90
57026;DHT22;43961;52.940;6.834;2022-09-09T06:36:15;14.80;99.90
57026;DHT22;43961;52.940;6.834;2022-09-09T06:38:41;14.90;99.90
57026;DHT22;43961;52.940;6.834;2022-09-09T06:41:09;14.90;99.90
57026;DHT22;43961;52.940;6.834;2022-09-09T06:43:35;15.00;99.90
57026;DHT22;43961;52.940;6.834;2022-09-09T06:46:03;15.00;99.90
57026;DHT22;43961;52.940;6.834;2022-09-09T06:48:29;15.10;99.90
57026;DHT22;43961;52.940;6.834;2022-09-09T06:51:07;15.20;99.90
57026;DHT22;43961;52.940;6.834;2022-09-09T06:53:35;15.20;99.90
57026;DHT22;43961;52.940;6.834;2022-09-09T06:56:25;15.20;99.90
57026;DHT22;43961;52.940;6.834;2022-09-09T06:58:52;15.20;99.90
57026;DHT22;43961;52.940;6.834;2022-09-09T07:01:22;15.20;99.90
57026;DHT22;43961;52.940;6.834;2022-09-09T07:03:54;15.20;99.90
57026;DHT22;43961;52.940;6.834;2022-09-09T07:06:26;15.20;99.90
57026;DHT22;43961;52.940;6.834;2022-09-09T07:08:53;15.20;99.90
57026;DHT22;43961;52.940;6.834;2022-09-09T07:11:21;15.20;99.90
57026;DHT22;43961;52.940;6.834;2022-09-09T07:13:47;15.20;99.90
57026;DHT22;43961;52.940;6.834;2022-09-09T07:16:16;15.20;99.90
57026;DHT22;43961;52.940;6.834;2022-09-09T07:18:43;15.30;99.90
57026;DHT22;43961;52.940;6.834;2022-09-09T07:21:13;15.30;99.90
57026;DHT22;43961;52.940;6.834;2022-09-09T07:23:40;15.30;99.90
57026;DHT22;43961;52.940;6.834;2022-09-09T07:26:14;15.40;99.90
57026;DHT22;43961;52.940;6.834;2022-09-09T07:28:40;15.40;99.90
57026;DHT22;43961;52.940;6.834;2022-09-09T07:33:38;15.60;99.90
57026;DHT22;43961;52.940;6.834;2022-09-09T07:38:47;15.90;99.90
57026;DHT22;43961;52.940;6.834;2022-09-09T07:41:20;15.90;99.90
57026;DHT22;43961;52.940;6.834;2022-09-09T07:43:48;16.20;99.90
57026;DHT22;43961;52.940;6.834;2022-09-09T07:46:15;16.50;99.90
57026;DHT22;43961;52.940;6.834;2022-09-09T07:48:45;16.70;99.90
57026;DHT22;43961;52.940;6.834;2022-09-09T07:51:15;17.10;99.90
57026;DHT22;43961;52.940;6.834;2022-09-09T07:53:45;17.50;99.90
57026;DHT22;43961;52.940;6.834;2022-09-09T07:56:14;17.80;99.90
57026;DHT22;43961;52.940;6.834;2022-09-09T07:58:44;18.10;99.90
57026;DHT22;43961;52.940;6.834;2022-09-09T08:01:11;18.30;99.90
57026;DHT22;43961;52.940;6.834;2022-09-09T08:03:39;18.50;99.90
57026;DHT22;43961;52.940;6.834;2022-09-09T08:06:07;18.40;99.90
57026;DHT22;43961;52.940;6.834;2022-09-09T08:08:37;18.70;99.90
57026;DHT22;43961;52.940;6.834;2022-09-09T08:11:10;18.70;99.90
57026;DHT22;43961;52.940;6.834;2022-09-09T08:13:38;18.90;99.90
57026;DHT22;43961;52.940;6.834;2022-09-09T08:16:12;19.00;99.90
57026;DHT22;43961;52.940;6.834;2022-09-09T08:18:39;19.10;99.90
57026;DHT22;43961;52.940;6.834;2022-09-09T08:21:11;19.20;99.90
57026;DHT22;43961;52.940;6.834;2022-09-09T08:23:38;19.30;99.90
57026;DHT22;43961;52.940;6.834;2022-09-09T08:26:14;19.40;99.90
57026;DHT22;43961;52.940;6.834;2022-09-09T08:28:41;19.50;99.90
57026;DHT22;43961;52.940;6.834;2022-09-09T08:31:14;19.70;99.90
57026;DHT22;43961;52.940;6.834;2022-09-09T08:33:41;19.80;99.90
57026;DHT22;43961;52.940;6.834;2022-09-09T08:36:10;19.90;99.90
57026;DHT22;43961;52.940;6.834;2022-09-09T08:38:36;20.20;99.90
57026;DHT22;43961;52.940;6.834;2022-09-09T08:43:41;20.30;99.90
57026;DHT22;43961;52.940;6.834;2022-09-09T08:48:58;20.30;99.90
57026;DHT22;43961;52.940;6.834;2022-09-09T08:51:27;20.40;99.90
57026;DHT22;43961;52.940;6.834;2022-09-09T08:53:58;20.30;99.90
57026;DHT22;43961;52.940;6.834;2022-09-09T08:56:27;20.30;99.90
57026;DHT22;43961;52.940;6.834;2022-09-09T08:58:55;20.20;99.90
57026;DHT22;43961;52.940;6.834;2022-09-09T09:04:46;20.20;99.90
57026;DHT22;43961;52.940;6.834;2022-09-09T09:07:43;20.10;99.90
57026;DHT22;43961;52.940;6.834;2022-09-09T09:13:12;20.00;99.90
57026;DHT22;43961;52.940;6.834;2022-09-09T09:15:39;19.90;99.90
57026;DHT22;43961;52.940;6.834;2022-09-09T09:18:10;19.80;99.90
57026;DHT22;43961;52.940;6.834;2022-09-09T09:21:04;20.00;99.90
57026;DHT22;43961;52.940;6.834;2022-09-09T09:23:45;20.00;99.90
57026;DHT22;43961;52.940;6.834;2022-09-09T09:26:14;20.00;99.90
57026;DHT22;43961;52.940;6.834;2022-09-09T09:28:40;20.00;99.90
57026;DHT22;43961;52.940;6.834;2022-09-09T09:31:10;19.90;99.90
57026;DHT22;43961;52.940;6.834;2022-09-09T09:33:53;19.70;99.90
57026;DHT22;43961;52.940;6.834;2022-09-09T09:36:43;19.70;99.90
57026;DHT22;43961;52.940;6.834;2022-09-09T09:39:26;19.70;99.90
57026;DHT22;43961;52.940;6.834;2022-09-09T09:41:52;19.70;99.90
57026;DHT22;43961;52.940;6.834;2022-09-09T09:44:30;19.70;99.90
57026;DHT22;43961;52.940;6.834;2022-09-09T09:47:11;19.80;99.90
57026;DHT22;43961;52.940;6.834;2022-09-09T09:49:39;19.90;99.90
57026;DHT22;43961;52.940;6.834;2022-09-09T09:52:06;20.00;99.90
57026;DHT22;43961;52.940;6.834;2022-09-09T09:54:39;20.00;99.90
57026;DHT22;43961;52.940;6.834;2022-09-09T09:57:14;19.90;99.90
57026;DHT22;43961;52.940;6.834;2022-09-09T09:59:42;19.90;99.90
57026;DHT22;43961;52.940;6.834;2022-09-09T10:04:46;19.70;99.90
57026;DHT22;43961;52.940;6.834;2022-09-09T10:07:17;19.80;99.90
57026;DHT22;43961;52.940;6.834;2022-09-09T10:09:44;19.80;99.90
57026;DHT22;43961;52.940;6.834;2022-09-09T10:12:41;19.70;99.90
57026;DHT22;43961;52.940;6.834;2022-09-09T10:15:35;19.80;99.90
57026;DHT22;43961;52.940;6.834;2022-09-09T10:24:05;19.90;99.90
57026;DHT22;43961;52.940;6.834;2022-09-09T10:26:59;20.00;99.90
57026;DHT22;43961;52.940;6.834;2022-09-09T10:35:09;19.90;99.90
57026;DHT22;43961;52.940;6.834;2022-09-09T10:42:58;19.60;99.90
57026;DHT22;43961;52.940;6.834;2022-09-09T10:48:11;20.00;99.90
57026;DHT22;43961;52.940;6.834;2022-09-09T10:50:51;20.30;99.90
57026;DHT22;43961;52.940;6.834;2022-09-09T10:56:12;20.40;99.90
57026;DHT22;43961;52.940;6.834;2022-09-09T10:58:41;20.40;99.90
57026;DHT22;43961;52.940;6.834;2022-09-09T11:01:20;20.20;99.90
57026;DHT22;43961;52.940;6.834;2022-09-09T11:03:57;20.10;99.90
57026;DHT22;43961;52.940;6.834;2022-09-09T11:06:32;20.20;99.90
57026;DHT22;43961;52.940;6.834;2022-09-09T11:09:01;20.30;99.90
57026;DHT22;43961;52.940;6.834;2022-09-09T11:11:29;20.30;99.90
57026;DHT22;43961;52.940;6.834;2022-09-09T11:16:56;20.20;99.90
57026;DHT22;43961;52.940;6.834;2022-09-09T11:19:41;20.30;99.90
57026;DHT22;43961;52.940;6.834;2022-09-09T11:22:21;20.20;99.90
57026;DHT22;43961;52.940;6.834;2022-09-09T11:24:59;20.20;99.90
57026;DHT22;43961;52.940;6.834;2022-09-09T11:30:20;20.60;99.90
57026;DHT22;43961;52.940;6.834;2022-09-09T11:33:24;20.60;99.90
57026;DHT22;43961;52.940;6.834;2022-09-09T11:38:53;20.70;99.90
57026;DHT22;43961;52.940;6.834;2022-09-09T11:41:23;20.90;99.90
57026;DHT22;43961;52.940;6.834;2022-09-09T11:43:51;20.90;99.90
57026;DHT22;43961;52.940;6.834;2022-09-09T11:46:22;20.90;99.90
57026;DHT22;43961;52.940;6.834;2022-09-09T11:49:03;20.90;99.90
57026;DHT22;43961;52.940;6.834;2022-09-09T11:51:30;21.10;99.90
57026;DHT22;43961;52.940;6.834;2022-09-09T11:54:02;21.20;99.90
57026;DHT22;43961;52.940;6.834;2022-09-09T11:56:29;21.20;99.90
57026;DHT22;43961;52.940;6.834;2022-09-09T11:59:04;21.10;99.90
57026;DHT22;43961;52.940;6.834;2022-09-09T12:01:43;21.00;99.90
57026;DHT22;43961;52.940;6.834;2022-09-09T12:07:02;21.30;99.90
57026;DHT22;43961;52.940;6.834;2022-09-09T12:09:47;21.20;99.90
57026;DHT22;43961;52.940;6.834;2022-09-09T12:14:54;21.10;99.90
57026;DHT22;43961;52.940;6.834;2022-09-09T12:19:46;21.20;99.90
57026;DHT22;43961;52.940;6.834;2022-09-09T12:22:29;21.20;99.90
57026;DHT22;43961;52.940;6.834;2022-09-09T12:28:27;21.40;99.90
57026;DHT22;43961;52.940;6.834;2022-09-09T12:33:38;21.30;99.90
57026;DHT22;43961;52.940;6.834;2022-09-09T12:36:12;21.20;99.90
57026;DHT22;43961;52.940;6.834;2022-09-09T12:38:40;21.20;99.90
57026;DHT22;43961;52.940;6.834;2022-09-09T12:41:24;21.30;99.90
57026;DHT22;43961;52.940;6.834;2022-09-09T12:43:50;21.30;99.90
57026;DHT22;43961;52.940;6.834;2022-09-09T12:46:36;21.30;99.90
57026;DHT22;43961;52.940;6.834;2022-09-09T12:49:03;21.40;99.90
57026;DHT22;43961;52.940;6.834;2022-09-09T12:51:32;21.30;99.90
57026;DHT22;43961;52.940;6.834;2022-09-09T12:53:59;21.30;99.90
57026;DHT22;43961;52.940;6.834;2022-09-09T12:56:28;21.40;99.90
57026;DHT22;43961;52.940;6.834;2022-09-09T12:58:57;21.60;99.90
57026;DHT22;43961;52.940;6.834;2022-09-09T13:01:32;21.60;99.90
57026;DHT22;43961;52.940;6.834;2022-09-09T13:04:01;21.50;99.90
57026;DHT22;43961;52.940;6.834;2022-09-09T13:06:31;21.50;99.90
57026;DHT22;43961;52.940;6.834;2022-09-09T13:08:59;21.30;99.90
57026;DHT22;43961;52.940;6.834;2022-09-09T13:11:37;21.30;99.90
57026;DHT22;43961;52.940;6.834;2022-09-09T13:14:04;21.20;99.90
57026;DHT22;43961;52.940;6.834;2022-09-09T13:16:34;21.10;99.90
57026;DHT22;43961;52.940;6.834;2022-09-09T13:19:08;21.10;99.90
57026;DHT22;43961;52.940;6.834;2022-09-09T13:21:39;21.00;99.90
57026;DHT22;43961;52.940;6.834;2022-09-09T13:24:07;20.90;99.90
57026;DHT22;43961;52.940;6.834;2022-09-09T13:26:54;20.80;99.90
57026;DHT22;43961;52.940;6.834;2022-09-09T13:29:22;20.70;99.90
57026;DHT22;43961;52.940;6.834;2022-09-09T13:31:53;20.70;99.90
57026;DHT22;43961;52.940;6.834;2022-09-09T13:34:29;20.60;99.90
57026;DHT22;43961;52.940;6.834;2022-09-09T13:36:59;20.60;99.90
57026;DHT22;43961;52.940;6.834;2022-09-09T13:39:27;20.60;99.90
57026;DHT22;43961;52.940;6.834;2022-09-09T13:41:53;20.50;99.90
57026;DHT22;43961;52.940;6.834;2022-09-09T13:44:25;20.60;99.90
57026;DHT22;43961;52.940;6.834;2022-09-09T13:47:20;20.60;99.90
57026;DHT22;43961;52.940;6.834;2022-09-09T13:49:46;20.60;99.90
57026;DHT22;43961;52.940;6.834;2022-09-09T13:52:14;20.70;99.90
57026;DHT22;43961;52.940;6.834;2022-09-09T13:54:48;20.70;99.90
57026;DHT22;43961;52.940;6.834;2022-09-09T13:57:24;20.80;99.90
57026;DHT22;43961;52.940;6.834;2022-09-09T13:59:54;20.90;99.90
57026;DHT22;43961;52.940;6.834;2022-09-09T14:02:22;20.90;99.90
57026;DHT22;43961;52.940;6.834;2022-09-09T14:04:49;20.70;99.90
57026;DHT22;43961;52.940;6.834;2022-09-09T14:07:17;20.60;99.90
57026;DHT22;43961;52.940;6.834;2022-09-09T14:09:43;20.40;99.90
57026;DHT22;43961;52.940;6.834;2022-09-09T14:12:10;20.10;99.90
57026;DHT22;43961;52.940;6.834;2022-09-09T14:14:36;19.90;99.90
57026;DHT22;43961;52.940;6.834;2022-09-09T14:17:02;19.70;99.90
57026;DHT22;43961;52.940;6.834;2022-09-09T14:19:29;19.70;99.90
57026;DHT22;43961;52.940;6.834;2022-09-09T14:21:56;19.70;99.90
57026;DHT22;43961;52.940;6.834;2022-09-09T14:24:22;19.70;99.90
57026;DHT22;43961;52.940;6.834;2022-09-09T14:26:48;19.90;99.90
57026;DHT22;43961;52.940;6.834;2022-09-09T14:29:13;20.00;99.90
57026;DHT22;43961;52.940;6.834;2022-09-09T14:31:39;19.90;99.90
57026;DHT22;43961;52.940;6.834;2022-09-09T14:34:05;19.90;99.90
57026;DHT22;43961;52.940;6.834;2022-09-09T14:36:31;19.60;99.90
57026;DHT22;43961;52.940;6.834;2022-09-09T14:38:57;19.40;99.90
57026;DHT22;43961;52.940;6.834;2022-09-09T14:41:22;19.20;99.90
57026;DHT22;43961;52.940;6.834;2022-09-09T14:43:48;19.00;99.90
57026;DHT22;43961;52.940;6.834;2022-09-09T14:46:18;18.80;99.90
57026;DHT22;43961;52.940;6.834;2022-09-09T14:48:44;18.60;99.90
57026;DHT22;43961;52.940;6.834;2022-09-09T14:51:19;18.50;99.90
57026;DHT22;43961;52.940;6.834;2022-09-09T14:53:45;18.40;99.90
57026;DHT22;43961;52.940;6.834;2022-09-09T14:56:17;18.30;99.90
57026;DHT22;43961;52.940;6.834;2022-09-09T14:58:44;18.30;99.90
57026;DHT22;43961;52.940;6.834;2022-09-09T15:01:13;18.30;99.90
57026;DHT22;43961;52.940;6.834;2022-09-09T15:03:40;18.30;99.90
57026;DHT22;43961;52.940;6.834;2022-09-09T15:06:13;18.30;99.90
57026;DHT22;43961;52.940;6.834;2022-09-09T15:08:41;18.30;99.90
57026;DHT22;43961;52.940;6.834;2022-09-09T15:11:08;18.40;99.90
57026;DHT22;43961;52.940;6.834;2022-09-09T15:13:36;18.50;99.90
57026;DHT22;43961;52.940;6.834;2022-09-09T15:16:10;18.70;99.90
57026;DHT22;43961;52.940;6.834;2022-09-09T15:18:36;18.80;99.90
57026;DHT22;43961;52.940;6.834;2022-09-09T15:21:05;18.80;99.90
57026;DHT22;43961;52.940;6.834;2022-09-09T15:23:34;18.80;99.90
57026;DHT22;43961;52.940;6.834;2022-09-09T15:26:01;18.80;99.90
57026;DHT22;43961;52.940;6.834;2022-09-09T15:28:28;18.80;99.90
57026;DHT22;43961;52.940;6.834;2022-09-09T15:30:54;18.80;99.90
57026;DHT22;43961;52.940;6.834;2022-09-09T15:33:21;18.90;99.90
57026;DHT22;43961;52.940;6.834;2022-09-09T15:35:47;18.90;99.90
57026;DHT22;43961;52.940;6.834;2022-09-09T15:38:13;19.00;99.90
57026;DHT22;43961;52.940;6.834;2022-09-09T15:40:41;19.00;99.90
57026;DHT22;43961;52.940;6.834;2022-09-09T15:43:08;18.90;99.90
57026;DHT22;43961;52.940;6.834;2022-09-09T15:45:36;18.90;99.90
57026;DHT22;43961;52.940;6.834;2022-09-09T15:48:03;18.80;99.90
57026;DHT22;43961;52.940;6.834;2022-09-09T15:50:29;18.80;99.90
57026;DHT22;43961;52.940;6.834;2022-09-09T15:52:58;18.80;99.90
57026;DHT22;43961;52.940;6.834;2022-09-09T15:55:24;18.70;99.90
57026;DHT22;43961;52.940;6.834;2022-09-09T15:57:50;18.70;99.90
57026;DHT22;43961;52.940;6.834;2022-09-09T16:00:17;18.70;99.90
57026;DHT22;43961;52.940;6.834;2022-09-09T16:02:43;18.60;99.90
57026;DHT22;43961;52.940;6.834;2022-09-09T16:05:09;18.60;99.90
57026;DHT22;43961;52.940;6.834;2022-09-09T16:07:35;18.60;99.90
57026;DHT22;43961;52.940;6.834;2022-09-09T16:10:01;18.50;99.90
57026;DHT22;43961;52.940;6.834;2022-09-09T16:12:27;18.50;99.90
57026;DHT22;43961;52.940;6.834;2022-09-09T16:14:53;18.40;99.90
57026;DHT22;43961;52.940;6.834;2022-09-09T16:17:18;18.40;99.90
57026;DHT22;43961;52.940;6.834;2022-09-09T16:19:46;18.30;99.90
57026;DHT22;43961;52.940;6.834;2022-09-09T16:22:11;18.40;99.90
57026;DHT22;43961;52.940;6.834;2022-09-09T16:24:37;18.30;99.90
57026;DHT22;43961;52.940;6.834;2022-09-09T16:27:03;18.30;99.90
57026;DHT22;43961;52.940;6.834;2022-09-09T16:29:29;18.30;99.90
57026;DHT22;43961;52.940;6.834;2022-09-09T16:31:56;18.30;99.90
57026;DHT22;43961;52.940;6.834;2022-09-09T16:34:22;18.30;99.90
57026;DHT22;43961;52.940;6.834;2022-09-09T16:36:48;18.20;99.90
57026;DHT22;43961;52.940;6.834;2022-09-09T16:39:16;18.20;99.90
57026;DHT22;43961;52.940;6.834;2022-09-09T16:41:44;18.10;99.90
57026;DHT22;43961;52.940;6.834;2022-09-09T16:44:12;18.10;99.90
57026;DHT22;43961;52.940;6.834;2022-09-09T16:46:40;18.10;99.90
57026;DHT22;43961;52.940;6.834;2022-09-09T16:49:06;18.00;99.90
57026;DHT22;43961;52.940;6.834;2022-09-09T16:51:38;18.00;99.90
57026;DHT22;43961;52.940;6.834;2022-09-09T16:54:05;18.00;99.90
57026;DHT22;43961;52.940;6.834;2022-09-09T16:56:37;17.90;99.90
57026;DHT22;43961;52.940;6.834;2022-09-09T16:59:07;17.90;99.90
57026;DHT22;43961;52.940;6.834;2022-09-09T17:01:36;17.90;99.90
57026;DHT22;43961;52.940;6.834;2022-09-09T17:04:06;17.90;99.90
57026;DHT22;43961;52.940;6.834;2022-09-09T17:06:34;17.90;99.90
57026;DHT22;43961;52.940;6.834;2022-09-09T17:09:02;17.90;99.90
57026;DHT22;43961;52.940;6.834;2022-09-09T17:11:29;17.90;99.90
57026;DHT22;43961;52.940;6.834;2022-09-09T17:13:56;17.90;99.90
57026;DHT22;43961;52.940;6.834;2022-09-09T17:16:25;17.90;99.90
57026;DHT22;43961;52.940;6.834;2022-09-09T17:18:53;17.80;99.90
57026;DHT22;43961;52.940;6.834;2022-09-09T17:21:21;17.80;99.90
57026;DHT22;43961;52.940;6.834;2022-09-09T17:23:49;17.80;99.90